Time;durP1;ratioP1;P1;durP2;ratioP2;P2;SDS_P1;SDS_P2;PMS_P1;PMS_P2;Temp;Humidity;BMP_temperature;BMP_pressure;BME280_temperature;BME280_humidity;BME280_pressure;Samples;Min_cycle;Max_cycle;Signal;HPM_P1;HPM_P2
2024/03/25 00:00:10;;;;;;;11.32;5.10;;;;;;;3.13;100.00;96629.06;5014835;28;20497;-77
2024/03/25 00:02:38;;;;;;;12.20;5.40;;;;;;;3.11;100.00;96625.84;5016756;28;20401;-77
2024/03/25 00:05:05;;;;;;;14.02;5.50;;;;;;;3.09;100.00;96627.88;5014731;28;21051;-77
2024/03/25 00:07:32;;;;;;;20.00;5.43;;;;;;;3.21;100.00;96631.34;5015367;28;20408;-77
2024/03/25 00:09:59;;;;;;;10.23;5.53;;;;;;;3.15;100.00;96636.69;5015496;28;20401;-77
2024/03/25 00:12:25;;;;;;;18.50;5.85;;;;;;;3.05;100.00;96627.53;5014552;28;20443;-76
2024/03/25 00:14:52;;;;;;;14.27;5.68;;;;;;;3.02;100.00;96635.81;5014276;28;20409;-77
2024/03/25 00:17:19;;;;;;;12.15;5.40;;;;;;;3.02;100.00;96633.19;5013923;28;20940;-76
2024/03/25 00:19:50;;;;;;;14.55;5.78;;;;;;;2.98;100.00;96628.66;5003349;28;20489;-76
2024/03/25 00:22:17;;;;;;;12.63;5.70;;;;;;;3.00;100.00;96630.03;4994333;28;20921;-77
2024/03/25 00:24:43;;;;;;;15.95;5.72;;;;;;;2.94;100.00;96628.28;4994569;28;20422;-76
2024/03/25 00:27:09;;;;;;;13.05;5.72;;;;;;;2.93;100.00;96637.13;4999836;28;20413;-77
2024/03/25 00:29:35;;;;;;;11.37;5.50;;;;;;;2.87;100.00;96626.78;5014239;28;20785;-78
2024/03/25 00:32:01;;;;;;;16.45;5.10;;;;;;;2.83;100.00;96631.66;5014057;28;20511;-77
2024/03/25 00:34:27;;;;;;;15.45;5.95;;;;;;;2.77;100.00;96627.31;5009259;28;20418;-77
2024/03/25 00:36:55;;;;;;;13.57;5.68;;;;;;;2.71;100.00;96628.97;5009777;28;20409;-77
2024/03/25 00:39:22;;;;;;;21.55;5.88;;;;;;;2.67;100.00;96630.44;4993969;28;20511;-75
2024/03/25 00:41:48;;;;;;;22.27;6.18;;;;;;;2.62;100.00;96630.31;5012700;28;20819;-77
2024/03/25 00:44:14;;;;;;;16.30;5.95;;;;;;;2.63;100.00;96631.88;5007178;28;20418;-77
2024/03/25 00:46:41;;;;;;;19.95;6.13;;;;;;;2.58;100.00;96630.94;5003064;28;20413;-77
2024/03/25 00:49:07;;;;;;;13.32;6.10;;;;;;;2.56;100.00;96636.38;5013556;28;20405;-76
2024/03/25 00:51:33;;;;;;;20.75;5.95;;;;;;;2.54;100.00;96628.00;5013661;28;20405;-77
2024/03/25 00:54:01;;;;;;;19.17;5.93;;;;;;;2.53;100.00;96630.81;4997793;28;20453;-77
2024/03/25 00:56:27;;;;;;;12.73;5.55;;;;;;;2.55;100.00;96636.63;4992275;28;20450;-77
2024/03/25 00:58:54;;;;;;;13.50;5.90;;;;;;;2.53;100.00;96629.00;5011993;28;20397;-77
2024/03/25 01:01:20;;;;;;;11.30;5.60;;;;;;;2.52;100.00;96622.19;5012020;28;20397;-77
2024/03/25 01:03:47;;;;;;;13.27;5.50;;;;;;;2.47;100.00;96623.84;5011843;28;20909;-77
2024/03/25 01:06:14;;;;;;;12.65;5.32;;;;;;;2.46;100.00;96625.66;5021410;28;20420;-77
2024/03/25 01:08:40;;;;;;;18.43;6.47;;;;;;;2.42;100.00;96621.88;5012428;28;20521;-77
2024/03/25 01:11:07;;;;;;;13.57;6.00;;;;;;;2.37;100.00;96618.34;5011969;28;20429;-78
2024/03/25 01:13:33;;;;;;;12.82;6.18;;;;;;;2.31;100.00;96604.34;5012032;28;20401;-75
2024/03/25 01:15:59;;;;;;;16.83;6.47;;;;;;;2.30;100.00;96611.38;5011360;28;20404;-77
2024/03/25 01:18:26;;;;;;;21.65;6.93;;;;;;;2.26;100.00;96602.38;5012135;28;20408;-78
2024/03/25 01:20:52;;;;;;;18.55;7.18;;;;;;;2.24;100.00;96601.81;5011916;28;20459;-78
2024/03/25 01:23:18;;;;;;;19.15;6.72;;;;;;;2.20;100.00;96598.03;5011780;28;20405;-77
2024/03/25 01:25:44;;;;;;;22.90;7.07;;;;;;;2.17;100.00;96589.84;5011417;28;20397;-77
2024/03/25 01:28:11;;;;;;;27.13;8.20;;;;;;;2.15;100.00;96584.81;5011750;28;20400;-76
2024/03/25 01:30:39;;;;;;;26.10;8.13;;;;;;;2.20;100.00;96592.00;4994198;28;20486;-76
2024/03/25 01:33:05;;;;;;;20.95;7.15;;;;;;;2.17;100.00;96595.88;4991869;28;20452;-78
2024/03/25 01:35:31;;;;;;;16.15;6.95;;;;;;;2.15;100.00;96591.84;5000154;28;20405;-77
2024/03/25 01:37:58;;;;;;;19.10;6.90;;;;;;;2.11;100.00;96590.69;5008126;28;20398;-77
2024/03/25 01:40:24;;;;;;;16.00;7.00;;;;;;;2.09;100.00;96595.34;5010536;28;20407;-77
2024/03/25 01:42:56;;;;;;;25.30;8.25;;;;;;;2.12;100.00;96589.66;5008590;28;20496;-78
2024/03/25 01:45:24;;;;;;;31.77;8.40;;;;;;;2.17;100.00;96598.47;5007158;28;20864;-77
2024/03/25 01:47:50;;;;;;;23.08;7.82;;;;;;;2.19;100.00;96595.63;4994886;28;20444;-77
2024/03/25 01:50:17;;;;;;;24.38;7.90;;;;;;;2.22;100.00;96597.81;5011556;28;20777;-77
2024/03/25 01:52:43;;;;;;;23.95;8.32;;;;;;;2.24;100.00;96603.63;5001639;28;20877;-77
2024/03/25 01:55:16;;;;;;;26.60;8.67;;;;;;;2.24;100.00;96603.63;4991732;28;20899;-77
2024/03/25 01:57:42;;;;;;;27.70;8.48;;;;;;;2.25;100.00;96600.00;4992604;28;20437;-77
2024/03/25 02:00:10;;;;;;;22.65;8.45;;;;;;;2.27;100.00;96603.97;5004958;28;20395;-77
2024/03/25 02:02:47;;;;;;;29.10;9.15;;;;;;;2.31;100.00;96596.50;5011559;28;20407;-77
2024/03/25 02:05:14;;;;;;;28.75;8.43;;;;;;;2.33;100.00;96597.09;4997394;28;20568;-77
2024/03/25 02:07:41;;;;;;;34.92;9.35;;;;;;;2.40;100.00;96604.84;4991970;28;20441;-77
2024/03/25 02:10:14;;;;;;;27.60;8.60;;;;;;;2.49;100.00;96609.53;4999765;28;20411;-77
2024/03/25 02:12:41;;;;;;;25.60;8.63;;;;;;;2.48;100.00;96602.72;4991689;28;20764;-78
2024/03/25 02:15:08;;;;;;;31.80;10.05;;;;;;;2.49;100.00;96601.72;5007246;28;20408;-77
2024/03/25 02:17:36;;;;;;;26.05;7.82;;;;;;;2.56;100.00;96601.63;5010322;28;20410;-77
2024/03/25 02:20:05;;;;;;;23.17;7.63;;;;;;;2.58;100.00;96608.25;5018700;28;20496;-77
2024/03/25 02:22:31;;;;;;;23.90;7.33;;;;;;;2.58;100.00;96599.59;5016737;28;20442;-77
2024/03/25 02:24:58;;;;;;;23.70;7.88;;;;;;;2.68;100.00;96603.31;5014696;28;20478;-78
2024/03/25 02:27:28;;;;;;;20.08;7.93;;;;;;;2.66;100.00;96596.69;5015315;28;20412;-78
2024/03/25 02:29:54;;;;;;;15.82;7.15;;;;;;;2.67;100.00;96590.44;5018606;28;20409;-79
2024/03/25 02:32:21;;;;;;;21.23;7.88;;;;;;;2.65;100.00;96590.66;5019147;28;20401;-80
2024/03/25 02:34:51;;;;;;;22.23;6.90;;;;;;;2.67;100.00;96591.25;5023392;28;20416;-79
2024/03/25 02:37:18;;;;;;;21.03;7.10;;;;;;;2.68;100.00;96590.22;5019458;28;20505;-79
2024/03/25 02:39:49;;;;;;;21.42;7.00;;;;;;;2.69;100.00;96586.59;5016302;28;20393;-79
2024/03/25 02:42:15;;;;;;;20.88;7.85;;;;;;;2.71;100.00;96592.38;5011752;28;20959;-80
2024/03/25 02:44:43;;;;;;;21.17;7.20;;;;;;;2.75;100.00;96590.16;5019835;28;20416;-79
2024/03/25 02:47:11;;;;;;;24.88;7.85;;;;;;;2.72;100.00;96598.41;5018897;28;20447;-80
2024/03/25 02:49:37;;;;;;;22.00;7.25;;;;;;;2.73;100.00;96598.19;5011348;28;20446;-79
2024/03/25 02:52:04;;;;;;;19.52;6.60;;;;;;;2.73;100.00;96595.59;5019139;28;20399;-78
2024/03/25 02:54:30;;;;;;;20.30;6.78;;;;;;;2.75;100.00;96599.81;5018227;28;20464;-80
2024/03/25 02:56:57;;;;;;;22.53;6.83;;;;;;;2.71;100.00;96596.81;5017704;28;20400;-79
2024/03/25 02:59:23;;;;;;;13.02;5.78;;;;;;;2.77;100.00;96595.16;5027020;28;20415;-81
2024/03/25 03:01:50;;;;;;;9.20;5.13;;;;;;;2.77;100.00;96597.78;5011287;28;20414;-81
2024/03/25 03:04:18;;;;;;;11.85;5.38;;;;;;;2.79;100.00;96603.56;5019861;28;20421;-79
2024/03/25 03:06:44;;;;;;;10.30;5.30;;;;;;;2.73;100.00;96598.19;5018917;28;20928;-80
2024/03/25 03:09:10;;;;;;;9.57;4.70;;;;;;;2.76;100.00;96596.19;5019305;28;20990;-80
2024/03/25 03:11:36;;;;;;;9.35;5.07;;;;;;;2.72;100.00;96594.00;5019317;28;20401;-80
2024/03/25 03:14:04;;;;;;;12.27;5.30;;;;;;;2.73;100.00;96600.00;5019495;28;20435;-79
2024/03/25 03:16:31;;;;;;;12.05;4.97;;;;;;;2.65;100.00;96584.63;5018957;28;20454;-79
2024/03/25 03:18:58;;;;;;;10.68;5.20;;;;;;;2.66;100.00;96589.66;5005717;28;20441;-79
2024/03/25 03:21:25;;;;;;;11.07;5.40;;;;;;;2.63;100.00;96591.91;5015524;28;20431;-79
2024/03/25 03:23:52;;;;;;;10.13;5.13;;;;;;;2.57;100.00;96577.91;5021180;28;20818;-80
2024/03/25 03:26:26;;;;;;;11.40;5.65;;;;;;;2.49;100.00;96588.66;5019230;28;20826;-81
2024/03/25 03:28:53;;;;;;;13.37;5.10;;;;;;;2.39;100.00;96577.13;5018333;28;20523;-80
2024/03/25 03:31:21;;;;;;;12.03;5.60;;;;;;;2.37;100.00;96577.34;5018932;28;20405;-80
2024/03/25 03:33:47;;;;;;;16.23;6.20;;;;;;;2.30;100.00;96566.19;5011282;28;20446;-80
2024/03/25 03:36:24;;;;;;;16.27;6.10;;;;;;;2.28;100.00;96579.44;5019058;28;20411;-78
2024/03/25 03:38:51;;;;;;;13.98;6.40;;;;;;;2.29;100.00;96578.44;5019523;28;20470;-79
2024/03/25 03:41:19;;;;;;;17.17;6.27;;;;;;;2.24;100.00;96580.13;5018708;28;20424;-79
2024/03/25 03:43:47;;;;;;;20.05;6.95;;;;;;;2.28;100.00;96581.25;5019875;28;20518;-79
2024/03/25 03:46:13;;;;;;;20.38;7.00;;;;;;;2.27;100.00;96588.31;5015689;28;20535;-79
2024/03/25 03:48:40;;;;;;;14.82;6.22;;;;;;;2.30;100.00;96581.84;4998907;28;20402;-79
2024/03/25 03:51:08;;;;;;;24.67;7.85;;;;;;;2.27;100.00;96577.06;5003994;28;20626;-80
2024/03/25 03:53:38;;;;;;;14.63;6.67;;;;;;;2.33;100.00;96587.41;5019456;28;20405;-80
2024/03/25 03:56:07;;;;;;;15.73;6.30;;;;;;;2.35;100.00;96582.00;5020274;28;20446;-80
2024/03/25 03:58:38;;;;;;;21.95;7.35;;;;;;;2.34;100.00;96596.84;5012022;28;20458;-80
2024/03/25 04:01:16;;;;;;;22.80;7.38;;;;;;;2.32;100.00;96600.72;5014503;28;20442;-80
2024/03/25 04:03:42;;;;;;;20.93;7.63;;;;;;;2.36;100.00;96603.69;5009465;28;20614;-80
2024/03/25 04:06:10;;;;;;;22.38;7.82;;;;;;;2.36;100.00;96607.09;5017853;28;21014;-79
2024/03/25 04:08:37;;;;;;;21.40;7.40;;;;;;;2.34;100.00;96607.31;5010260;28;20486;-80
2024/03/25 04:11:05;;;;;;;23.52;7.63;;;;;;;2.30;100.00;96611.38;5020796;28;20398;-80
2024/03/25 04:13:32;;;;;;;21.55;6.60;;;;;;;2.30;100.00;96600.13;4998245;28;20406;-79
2024/03/25 04:16:02;;;;;;;19.85;6.65;;;;;;;2.27;100.00;96606.56;5005058;28;20405;-80
2024/03/25 04:18:28;;;;;;;17.45;6.50;;;;;;;2.24;100.00;96604.41;5005328;28;20469;-80
2024/03/25 04:20:55;;;;;;;15.55;6.13;;;;;;;2.23;100.00;96599.41;5008702;28;20428;-79
2024/03/25 04:23:21;;;;;;;16.45;7.25;;;;;;;2.22;100.00;96595.19;5017190;28;20468;-80
2024/03/25 04:25:48;;;;;;;16.57;6.53;;;;;;;2.21;100.00;96591.00;5006611;28;20429;-79
2024/03/25 04:28:14;;;;;;;21.47;7.57;;;;;;;2.21;100.00;96589.19;5011757;28;20909;-78
2024/03/25 04:30:41;;;;;;;14.65;6.72;;;;;;;2.20;100.00;96590.19;5018631;28;20483;-80
2024/03/25 04:33:08;;;;;;;22.10;7.10;;;;;;;2.19;100.00;96593.00;5009822;28;20401;-79
2024/03/25 04:35:34;;;;;;;16.88;7.40;;;;;;;2.18;100.00;96587.00;5004911;28;20410;-80
2024/03/25 04:38:00;;;;;;;23.20;8.20;;;;;;;2.18;100.00;96589.59;5013917;28;20495;-78
2024/03/25 04:40:27;;;;;;;17.70;7.05;;;;;;;2.25;100.00;96592.97;4999758;28;20405;-80
2024/03/25 04:42:54;;;;;;;25.20;7.50;;;;;;;2.22;100.00;96593.38;5018164;28;20400;-79
2024/03/25 04:45:20;;;;;;;21.80;7.57;;;;;;;2.24;100.00;96593.19;5017842;28;20428;-79
2024/03/25 04:47:46;;;;;;;16.80;7.13;;;;;;;2.27;100.00;96600.56;5017718;28;20407;-80
2024/03/25 04:50:12;;;;;;;17.40;6.57;;;;;;;2.29;100.00;96601.16;5017864;28;20401;-78
2024/03/25 04:52:39;;;;;;;19.90;6.88;;;;;;;2.27;100.00;96593.53;5018537;28;20961;-80
2024/03/25 04:55:06;;;;;;;18.85;6.90;;;;;;;2.29;100.00;96601.94;5019641;28;20397;-81
2024/03/25 04:57:32;;;;;;;14.68;6.55;;;;;;;2.25;100.00;96595.56;5021092;28;20404;-80
2024/03/25 04:59:59;;;;;;;19.35;7.75;;;;;;;2.25;100.00;96598.19;5020605;28;20766;-80
2024/03/25 05:02:26;;;;;;;18.48;7.07;;;;;;;2.25;100.00;96595.56;5020584;28;20469;-80
2024/03/25 05:04:52;;;;;;;14.95;7.00;;;;;;;2.24;100.00;96593.19;5012300;28;20920;-79
2024/03/25 05:07:18;;;;;;;15.33;6.73;;;;;;;2.16;100.00;96596.88;5017775;28;20446;-79
2024/03/25 05:09:44;;;;;;;17.92;7.32;;;;;;;2.18;100.00;96597.44;5016527;28;20405;-79
2024/03/25 05:12:11;;;;;;;21.63;7.85;;;;;;;2.17;100.00;96595.88;5019306;28;20537;-80
2024/03/25 05:14:37;;;;;;;21.65;7.45;;;;;;;2.17;100.00;96601.09;5019255;28;20432;-79
2024/03/25 05:17:05;;;;;;;28.38;7.97;;;;;;;2.15;100.00;96602.31;5020976;28;20743;-81
2024/03/25 05:19:31;;;;;;;19.50;7.28;;;;;;;2.15;100.00;96597.88;5013791;28;20454;-80
2024/03/25 05:21:57;;;;;;;19.35;8.05;;;;;;;2.16;100.00;96598.69;5018147;28;20406;-80
2024/03/25 05:24:24;;;;;;;19.75;8.07;;;;;;;2.13;100.00;96599.91;5008132;28;20517;-80
2024/03/25 05:26:50;;;;;;;26.17;8.32;;;;;;;2.17;100.00;96601.09;5021402;28;20443;-80
2024/03/25 05:29:16;;;;;;;28.23;9.60;;;;;;;2.18;100.00;96604.50;5021575;28;20394;-81
2024/03/25 05:31:57;;;;;;;33.13;9.90;;;;;;;2.16;100.00;96602.09;5005448;28;20403;-80
2024/03/25 05:34:26;;;;;;;28.58;8.60;;;;;;;2.21;100.00;96598.81;5019387;28;20438;-82
2024/03/25 05:36:53;;;;;;;28.58;9.07;;;;;;;2.22;100.00;96605.63;5019233;28;20396;-81
2024/03/25 05:39:20;;;;;;;20.15;8.38;;;;;;;2.25;100.00;96605.22;5011851;28;20467;-82
2024/03/25 05:41:47;;;;;;;26.63;8.77;;;;;;;2.27;100.00;96606.56;5017554;28;20464;-82
2024/03/25 05:44:13;;;;;;;24.15;9.25;;;;;;;2.25;100.00;96610.44;5008466;28;20425;-80
2024/03/25 05:46:39;;;;;;;26.15;9.50;;;;;;;2.32;100.00;96613.78;5014699;28;20428;-79
2024/03/25 05:49:06;;;;;;;29.80;9.30;;;;;;;2.34;100.00;96611.72;5016014;28;20439;-79
2024/03/25 05:51:34;;;;;;;30.80;9.02;;;;;;;2.32;100.00;96611.97;5021479;28;20422;-79
2024/03/25 05:54:02;;;;;;;21.70;8.20;;;;;;;2.34;100.00;96612.53;5014769;28;20511;-79
2024/03/25 05:56:32;;;;;;;23.87;8.80;;;;;;;2.33;100.00;96612.78;5008232;28;20441;-79
2024/03/25 05:58:58;;;;;;;25.00;8.60;;;;;;;2.29;100.00;96609.78;5014507;28;20455;-80
2024/03/25 06:01:25;;;;;;;24.20;8.80;;;;;;;2.28;100.00;96610.00;5006123;28;20411;-80
2024/03/25 06:03:52;;;;;;;22.50;8.52;;;;;;;2.30;100.00;96608.75;5013992;28;20422;-79
2024/03/25 06:06:18;;;;;;;18.33;7.90;;;;;;;2.32;100.00;96608.56;5010402;28;20424;-80
2024/03/25 06:08:46;;;;;;;20.25;7.70;;;;;;;2.31;100.00;96607.75;5022441;28;20443;-79
2024/03/25 06:11:12;;;;;;;18.13;7.78;;;;;;;2.31;100.00;96609.56;5021142;28;20397;-79
2024/03/25 06:13:39;;;;;;;21.35;8.05;;;;;;;2.37;100.00;96613.91;5012987;28;20894;-80
2024/03/25 06:16:05;;;;;;;22.80;7.70;;;;;;;2.40;100.00;96615.31;5007670;28;20398;-80
2024/03/25 06:18:31;;;;;;;24.02;7.80;;;;;;;2.42;100.00;96611.44;5017992;28;20412;-80
2024/03/25 06:20:58;;;;;;;15.18;6.85;;;;;;;2.42;100.00;96618.47;5013658;28;20888;-80
2024/03/25 06:23:25;;;;;;;22.73;7.50;;;;;;;2.44;100.00;96619.06;5015311;28;20398;-80
2024/03/25 06:25:53;;;;;;;21.67;7.45;;;;;;;2.46;100.00;96617.84;5014436;28;20431;-83
2024/03/25 06:28:19;;;;;;;22.48;8.77;;;;;;;2.50;100.00;96615.56;5018699;28;20454;-78
2024/03/25 06:36:36;;;;;;;22.92;8.27;;;;;;;2.90;100.00;96615.88;5021171;28;20488;-76
2024/03/25 06:39:02;;;;;;;20.00;6.95;;;;;;;2.78;100.00;96613.22;5006877;28;20421;-75
2024/03/25 06:41:30;;;;;;;15.68;7.47;;;;;;;2.85;100.00;96626.22;5006004;28;20938;-76
2024/03/25 06:43:56;;;;;;;12.25;5.80;;;;;;;2.76;100.00;96622.31;5004049;28;20899;-76
2024/03/25 06:46:22;;;;;;;15.88;7.28;;;;;;;2.67;100.00;96620.00;5003923;28;20445;-76
2024/03/25 06:48:48;;;;;;;21.98;7.35;;;;;;;2.66;100.00;96628.03;5004929;28;20400;-75
2024/03/25 06:51:14;;;;;;;20.92;6.82;;;;;;;2.77;100.00;96623.91;5004186;28;20413;-76
2024/03/25 06:53:40;;;;;;;11.23;5.32;;;;;;;2.89;100.00;96629.97;5005684;28;20404;-79
2024/03/25 06:56:06;;;;;;;13.70;6.30;;;;;;;3.13;100.00;96630.88;5015295;28;20902;-79
2024/03/25 06:58:34;;;;;;;15.55;6.38;;;;;;;3.19;100.00;96633.38;5005913;28;20412;-79
2024/03/25 07:01:05;;;;;;;17.65;6.50;;;;;;;3.25;100.00;96635.09;5016694;28;20447;-77
2024/03/25 07:03:32;;;;;;;15.40;6.20;;;;;;;3.40;100.00;96640.72;5011359;28;20394;-76
2024/03/25 07:06:00;;;;;;;12.77;6.25;;;;;;;3.44;100.00;96646.31;5007297;28;20893;-76
2024/03/25 07:08:27;;;;;;;15.48;5.65;;;;;;;3.44;100.00;96641.88;5004066;28;20399;-76
2024/03/25 07:10:53;;;;;;;10.60;4.30;;;;;;;3.56;100.00;96647.13;5014857;28;21110;-76
2024/03/25 07:13:20;;;;;;;17.13;6.65;;;;;;;3.85;100.00;96645.47;5008495;28;20497;-76
2024/03/25 07:15:47;;;;;;;17.58;7.10;;;;;;;3.98;100.00;96645.25;5013339;28;20552;-76
2024/03/25 07:18:14;;;;;;;13.65;6.20;;;;;;;3.97;100.00;96638.44;5013023;28;20423;-77
2024/03/25 07:20:40;;;;;;;17.05;5.93;;;;;;;3.93;100.00;96645.13;5010470;28;20428;-76
2024/03/25 07:23:06;;;;;;;15.93;5.70;;;;;;;3.81;100.00;96642.53;4994814;28;20482;-75
2024/03/25 07:25:33;;;;;;;10.75;5.85;;;;;;;3.76;100.00;96639.00;4996052;28;20874;-74
2024/03/25 07:28:06;;;;;;;6.60;4.18;;;;;;;3.76;100.00;96634.53;4999176;28;20410;-79
2024/03/25 07:30:32;;;;;;;14.05;5.20;;;;;;;3.92;100.00;96627.03;5002617;28;20463;-76
2024/03/25 07:33:00;;;;;;;12.13;4.70;;;;;;;4.05;100.00;96626.81;5005434;28;20883;-76
2024/03/25 07:35:26;;;;;;;10.70;4.88;;;;;;;3.98;100.00;96621.69;5007277;28;20413;-79
2024/03/25 07:37:52;;;;;;;9.00;5.07;;;;;;;4.08;100.00;96621.09;5006710;28;20409;-79
2024/03/25 07:40:18;;;;;;;6.55;4.13;;;;;;;4.10;100.00;96622.47;5003863;28;20489;-79
2024/03/25 07:42:45;;;;;;;7.60;3.72;;;;;;;4.15;100.00;96622.59;5005635;28;20437;-78
2024/03/25 07:45:11;;;;;;;6.45;4.20;;;;;;;4.27;100.00;96619.97;5006102;28;20422;-78
2024/03/25 07:47:38;;;;;;;8.23;3.97;;;;;;;4.33;100.00;96620.88;5016821;28;20491;-78
2024/03/25 07:50:06;;;;;;;9.93;4.80;;;;;;;4.28;100.00;96614.47;5018004;28;20423;-78
2024/03/25 07:52:33;;;;;;;12.63;5.00;;;;;;;4.31;100.00;96612.44;5015458;28;20469;-79
2024/03/25 07:55:00;;;;;;;8.90;4.05;;;;;;;4.40;100.00;96617.09;5014680;28;20420;-80
2024/03/25 07:57:26;;;;;;;7.53;3.72;;;;;;;4.58;100.00;96622.22;5026123;28;20405;-78
2024/03/25 07:59:52;;;;;;;9.25;3.67;;;;;;;4.76;100.00;96620.44;5014603;28;20406;-79
2024/03/25 08:02:18;;;;;;;6.47;4.07;;;;;;;4.89;100.00;96631.44;5004762;28;20410;-79
2024/03/25 08:04:44;;;;;;;5.65;3.65;;;;;;;4.96;100.00;96624.22;5005278;28;20419;-78
2024/03/25 08:07:11;;;;;;;10.98;4.05;;;;;;;5.13;100.00;96623.47;4997918;28;20872;-77
2024/03/25 08:09:38;;;;;;;7.30;3.90;;;;;;;5.30;100.00;96612.00;5010179;28;20443;-78
2024/03/25 08:12:05;;;;;;;7.43;3.45;;;;;;;5.42;100.00;96619.81;5002959;28;20402;-78
2024/03/25 08:14:31;;;;;;;5.32;3.00;;;;;;;5.42;100.00;96619.81;5006815;28;20436;-78
2024/03/25 08:16:57;;;;;;;3.55;2.33;;;;;;;5.54;100.00;96614.50;5006429;28;20489;-78
2024/03/25 08:19:24;;;;;;;10.88;3.65;;;;;;;5.58;100.00;96621.66;5008298;28;20487;-79
2024/03/25 08:21:50;;;;;;;9.35;3.53;;;;;;;5.74;100.00;96620.06;5006344;28;20416;-77
2024/03/25 08:24:17;;;;;;;7.75;3.22;;;;;;;5.43;100.00;96611.69;5008362;28;20417;-78
2024/03/25 08:26:43;;;;;;;10.40;3.30;;;;;;;5.49;100.00;96617.81;5007835;28;20817;-78
2024/03/25 08:29:09;;;;;;;6.90;2.70;;;;;;;5.48;100.00;96610.22;5008760;28;20858;-77
2024/03/25 08:31:35;;;;;;;7.80;3.20;;;;;;;5.61;100.00;96618.56;4998470;28;20448;-77
2024/03/25 08:34:02;;;;;;;8.43;3.00;;;;;;;5.57;100.00;96612.19;5008755;28;20410;-77
2024/03/25 08:36:28;;;;;;;5.80;2.60;;;;;;;5.49;100.00;96611.81;5001973;28;20421;-78
2024/03/25 08:38:54;;;;;;;6.75;3.10;;;;;;;5.41;100.00;96603.25;5002621;28;20464;-78
2024/03/25 08:41:21;;;;;;;6.80;2.70;;;;;;;5.55;100.00;96601.16;5001536;28;20529;-77
2024/03/25 08:43:47;;;;;;;3.58;2.35;;;;;;;5.82;100.00;96604.72;5007009;28;20458;-78
2024/03/25 08:46:14;;;;;;;2.72;1.90;;;;;;;6.27;100.00;96598.56;5004220;28;20407;-75
2024/03/25 08:48:40;;;;;;;2.00;1.45;;;;;;;6.77;100.00;96595.75;5005617;28;20828;-75
2024/03/25 08:51:07;;;;;;;3.37;1.80;;;;;;;7.24;100.00;96592.56;5011139;28;20526;-78
2024/03/25 08:53:33;;;;;;;2.50;1.30;;;;;;;7.82;100.00;96597.00;5011411;28;20476;-78
2024/03/25 08:55:59;;;;;;;2.75;1.50;;;;;;;8.58;100.00;96586.94;5004943;28;20409;-78
2024/03/25 08:58:26;;;;;;;3.40;1.70;;;;;;;8.91;100.00;96581.25;5009179;28;20568;-77
2024/03/25 09:00:52;;;;;;;2.10;1.30;;;;;;;9.22;100.00;96574.19;5004612;28;20467;-79
2024/03/25 09:03:19;;;;;;;2.78;1.20;;;;;;;9.28;100.00;96567.06;5007584;28;20418;-78
2024/03/25 09:05:46;;;;;;;2.22;1.20;;;;;;;9.01;100.00;96569.13;5007230;28;20444;-78
2024/03/25 09:08:13;;;;;;;3.08;1.60;;;;;;;8.82;100.00;96561.69;5006148;28;20402;-78
2024/03/25 09:13:25;;;;;;;1.98;1.40;;;;;;;8.74;100.00;96559.56;5005004;28;20485;-76
2024/03/25 09:15:51;;;;;;;4.40;1.52;;;;;;;8.59;100.00;96569.25;5004403;28;20951;-77
2024/03/25 09:18:18;;;;;;;3.38;1.60;;;;;;;8.71;100.00;96568.00;5002473;28;20399;-77
2024/03/25 09:20:44;;;;;;;2.05;1.30;;;;;;;9.06;100.00;96563.88;5004652;28;20393;-76
2024/03/25 09:23:11;;;;;;;2.13;1.20;;;;;;;9.39;100.00;96566.03;5000985;28;20468;-75
2024/03/25 09:25:37;;;;;;;1.88;1.30;;;;;;;9.95;100.00;96566.00;5003781;28;20417;-77
2024/03/25 09:28:04;;;;;;;4.07;1.80;;;;;;;10.51;100.00;96563.25;5005212;28;20852;-77
2024/03/25 09:30:31;;;;;;;3.83;1.45;;;;;;;10.63;100.00;96561.88;5008739;28;20458;-78
2024/03/25 09:32:57;;;;;;;4.53;1.80;;;;;;;11.03;100.00;96552.16;5006169;28;20434;-79
2024/03/25 09:35:23;;;;;;;2.13;1.60;;;;;;;10.94;100.00;96525.47;5009209;28;20410;-78
2024/03/25 09:37:49;;;;;;;2.50;1.60;;;;;;;10.95;100.00;96526.25;5007362;28;20431;-78
2024/03/25 09:40:16;;;;;;;2.88;1.30;;;;;;;11.07;100.00;96526.69;5030021;28;20409;-77
2024/03/25 09:42:47;;;;;;;1.92;1.40;;;;;;;11.36;100.00;96524.91;5030073;28;20396;-78
2024/03/25 09:45:16;;;;;;;3.72;1.50;;;;;;;11.73;100.00;96529.63;5006619;28;20417;-82
2024/03/25 09:47:45;;;;;;;4.43;1.48;;;;;;;12.31;100.00;96519.03;5011094;28;20874;-77
2024/03/25 09:50:13;;;;;;;3.87;1.70;;;;;;;12.31;100.00;96506.56;5010232;28;20449;-77
2024/03/25 09:52:39;;;;;;;4.40;1.63;;;;;;;12.31;100.00;96508.41;5006376;28;20431;-78
2024/03/25 09:55:06;;;;;;;3.63;1.40;;;;;;;11.86;100.00;96509.69;5010846;28;20382;-78
2024/03/25 09:57:33;;;;;;;2.80;1.30;;;;;;;11.35;100.00;96504.78;5008748;28;20438;-79
2024/03/25 09:59:59;;;;;;;4.32;1.30;;;;;;;10.92;100.00;96498.47;5016151;28;20405;-77
2024/03/25 10:02:28;;;;;;;1.58;1.30;;;;;;;10.69;100.00;96491.97;5012915;28;20406;-77
2024/03/25 10:04:55;;;;;;;4.60;2.10;;;;;;;10.79;100.00;96491.94;5017952;28;20429;-77
2024/03/25 10:07:25;;;;;;;2.67;1.70;;;;;;;10.83;100.00;96495.59;5010061;28;20411;-79
2024/03/25 10:09:52;;;;;;;2.47;1.67;;;;;;;10.56;100.00;96492.59;5014993;28;20499;-79
2024/03/25 10:12:18;;;;;;;2.70;1.50;;;;;;;10.22;100.00;96481.09;5011184;28;20481;-78
2024/03/25 10:14:44;;;;;;;5.32;2.20;;;;;;;9.98;100.00;96470.31;4997287;28;21881;-77
2024/03/25 10:17:11;;;;;;;2.97;1.67;;;;;;;9.81;100.00;96470.63;4993917;28;20407;-78
2024/03/25 10:19:37;;;;;;;2.63;1.50;;;;;;;9.95;100.00;96465.53;5000859;28;20410;-77
2024/03/25 10:22:06;;;;;;;1.75;1.42;;;;;;;9.99;100.00;96456.81;5004630;28;20412;-77
2024/03/25 10:24:40;;;;;;;2.28;1.40;;;;;;;9.98;100.00;96457.09;4996074;28;20426;-79
2024/03/25 10:27:09;;;;;;;6.10;2.10;;;;;;;9.90;100.00;96449.72;5005406;28;20453;-78
2024/03/25 10:29:35;;;;;;;3.70;1.73;;;;;;;9.77;100.00;96455.56;5013249;28;20411;-78
2024/03/25 10:32:04;;;;;;;3.15;1.40;;;;;;;9.61;100.00;96447.69;5012729;28;20397;-78
2024/03/25 10:34:30;;;;;;;3.28;1.73;;;;;;;9.50;100.00;96451.38;5012255;28;20436;-77
2024/03/25 10:36:58;;;;;;;2.38;1.70;;;;;;;9.41;100.00;96447.69;5015667;28;20492;-78
2024/03/25 10:39:29;;;;;;;2.05;1.60;;;;;;;9.37;100.00;96443.22;5008901;28;20401;-78
2024/03/25 10:41:57;;;;;;;1.42;1.33;;;;;;;9.38;100.00;96455.38;4999605;28;20458;-78
2024/03/25 10:44:24;;;;;;;2.90;1.60;;;;;;;9.47;100.00;96449.25;5009323;28;20422;-76
2024/03/25 10:47:01;;;;;;;2.95;2.17;;;;;;;9.38;100.00;96445.59;4995819;28;20922;-78
2024/03/25 10:49:34;;;;;;;2.25;1.70;;;;;;;9.36;100.00;96445.06;5003891;28;20402;-77
2024/03/25 10:52:02;;;;;;;6.47;2.10;;;;;;;9.40;100.00;96453.25;4996652;28;20445;-79
2024/03/25 10:54:31;;;;;;;1.90;1.40;;;;;;;9.45;100.00;96446.13;4997439;28;20407;-78
2024/03/25 10:56:59;;;;;;;3.22;1.60;;;;;;;9.49;100.00;96438.44;5008192;28;20388;-78
2024/03/25 10:59:26;;;;;;;2.90;1.80;;;;;;;9.52;100.00;96438.72;5007187;28;20405;-78
2024/03/25 11:01:52;;;;;;;2.42;1.80;;;;;;;9.71;100.00;96434.41;5012202;28;20419;-77
2024/03/25 11:04:19;;;;;;;2.22;1.58;;;;;;;10.18;100.00;96443.03;4996439;28;20426;-78
2024/03/25 11:06:45;;;;;;;1.60;1.23;;;;;;;10.62;100.00;96437.75;4995928;28;20406;-78
2024/03/25 11:09:25;;;;;;;1.90;1.50;;;;;;;11.72;100.00;96430.00;4996170;28;20453;-78
2024/03/25 11:11:53;;;;;;;3.07;1.37;;;;;;;13.76;100.00;96423.34;5007433;28;20815;-77
2024/03/25 11:14:19;;;;;;;2.35;1.25;;;;;;;15.46;100.00;96389.78;5016438;28;20409;-79
2024/03/25 11:16:51;;;;;;;3.10;1.07;;;;;;;17.09;100.00;96380.56;5002325;28;20409;-79
2024/03/25 11:19:18;;;;;;;2.75;1.00;;;;;;;18.41;100.00;96368.75;5003101;28;20410;-78
2024/03/25 11:21:45;;;;;;;3.38;0.90;;;;;;;19.75;100.00;96370.06;5005737;28;20405;-80
2024/03/25 11:24:11;;;;;;;3.28;1.20;;;;;;;20.61;100.00;96358.13;4999687;28;20426;-80
2024/03/25 11:26:42;;;;;;;2.88;1.17;;;;;;;20.62;100.00;96356.25;5004328;28;20503;-79
2024/03/25 11:29:10;;;;;;;2.00;0.90;;;;;;;21.19;100.00;96345.19;5006419;28;20407;-79
2024/03/25 11:31:39;;;;;;;2.58;1.10;;;;;;;21.14;100.00;96345.38;5011187;28;20413;-79
2024/03/25 11:34:08;;;;;;;2.73;1.00;;;;;;;20.36;100.00;96343.22;5007292;28;20819;-78